sensor_id;sensor_type;location;lat;lon;timestamp;P1;durP1;ratioP1;P2;durP2;ratioP2
5612;SDS011;63463;53.586;9.928;2023-10-13T00:00:25;12.80;;;6.10;;
5612;SDS011;63463;53.586;9.928;2023-10-13T00:02:51;9.20;;;6.60;;
5612;SDS011;63463;53.586;9.928;2023-10-13T00:05:17;19.50;;;6.93;;
5612;SDS011;63463;53.586;9.928;2023-10-13T00:07:44;11.63;;;6.40;;
5612;SDS011;63463;53.586;9.928;2023-10-13T00:10:10;14.03;;;7.70;;
5612;SDS011;63463;53.586;9.928;2023-10-13T00:12:37;22.67;;;7.00;;
5612;SDS011;63463;53.586;9.928;2023-10-13T00:15:03;13.20;;;6.97;;
5612;SDS011;63463;53.586;9.928;2023-10-13T00:17:32;14.90;;;7.53;;
5612;SDS011;63463;53.586;9.928;2023-10-13T00:19:58;25.73;;;7.90;;
5612;SDS011;63463;53.586;9.928;2023-10-13T00:22:25;17.87;;;7.53;;
5612;SDS011;63463;53.586;9.928;2023-10-13T00:24:52;23.63;;;8.30;;
5612;SDS011;63463;53.586;9.928;2023-10-13T00:27:23;25.13;;;8.87;;
5612;SDS011;63463;53.586;9.928;2023-10-13T00:29:57;17.80;;;7.37;;
5612;SDS011;63463;53.586;9.928;2023-10-13T00:32:46;21.37;;;8.30;;
5612;SDS011;63463;53.586;9.928;2023-10-13T00:35:16;15.90;;;8.40;;
5612;SDS011;63463;53.586;9.928;2023-10-13T00:38:15;24.10;;;8.37;;
5612;SDS011;63463;53.586;9.928;2023-10-13T00:40:44;27.60;;;8.63;;
5612;SDS011;63463;53.586;9.928;2023-10-13T00:43:17;21.70;;;8.50;;
5612;SDS011;63463;53.586;9.928;2023-10-13T00:45:43;26.17;;;10.17;;
5612;SDS011;63463;53.586;9.928;2023-10-13T00:48:10;26.73;;;9.87;;
5612;SDS011;63463;53.586;9.928;2023-10-13T00:50:38;25.73;;;9.57;;
5612;SDS011;63463;53.586;9.928;2023-10-13T00:53:05;21.60;;;9.23;;
5612;SDS011;63463;53.586;9.928;2023-10-13T00:55:32;27.33;;;9.93;;
5612;SDS011;63463;53.586;9.928;2023-10-13T00:58:00;41.73;;;10.10;;
5612;SDS011;63463;53.586;9.928;2023-10-13T01:00:32;25.00;;;10.87;;
5612;SDS011;63463;53.586;9.928;2023-10-13T01:03:11;20.63;;;9.47;;
5612;SDS011;63463;53.586;9.928;2023-10-13T01:05:37;28.30;;;10.00;;
5612;SDS011;63463;53.586;9.928;2023-10-13T01:08:04;23.60;;;9.57;;
5612;SDS011;63463;53.586;9.928;2023-10-13T01:10:35;27.30;;;10.27;;
5612;SDS011;63463;53.586;9.928;2023-10-13T01:13:02;31.67;;;10.90;;
5612;SDS011;63463;53.586;9.928;2023-10-13T01:15:28;34.40;;;9.93;;
5612;SDS011;63463;53.586;9.928;2023-10-13T01:18:05;49.73;;;10.93;;
5612;SDS011;63463;53.586;9.928;2023-10-13T01:20:36;27.37;;;10.47;;
5612;SDS011;63463;53.586;9.928;2023-10-13T01:23:14;35.13;;;10.20;;
5612;SDS011;63463;53.586;9.928;2023-10-13T01:25:43;29.43;;;11.33;;
5612;SDS011;63463;53.586;9.928;2023-10-13T01:28:10;34.77;;;10.80;;
5612;SDS011;63463;53.586;9.928;2023-10-13T01:30:40;36.83;;;11.90;;
5612;SDS011;63463;53.586;9.928;2023-10-13T01:33:06;27.47;;;11.60;;
5612;SDS011;63463;53.586;9.928;2023-10-13T01:35:34;35.83;;;12.10;;
5612;SDS011;63463;53.586;9.928;2023-10-13T01:38:07;30.23;;;10.67;;
5612;SDS011;63463;53.586;9.928;2023-10-13T01:40:34;37.40;;;12.40;;
5612;SDS011;63463;53.586;9.928;2023-10-13T01:43:00;29.50;;;11.97;;
5612;SDS011;63463;53.586;9.928;2023-10-13T01:45:26;38.47;;;13.83;;
5612;SDS011;63463;53.586;9.928;2023-10-13T01:47:55;30.50;;;13.00;;
5612;SDS011;63463;53.586;9.928;2023-10-13T01:50:22;40.07;;;13.50;;
5612;SDS011;63463;53.586;9.928;2023-10-13T01:52:55;32.77;;;12.90;;
5612;SDS011;63463;53.586;9.928;2023-10-13T01:55:40;34.60;;;13.83;;
5612;SDS011;63463;53.586;9.928;2023-10-13T01:58:12;41.17;;;14.77;;
5612;SDS011;63463;53.586;9.928;2023-10-13T02:00:40;40.93;;;13.67;;
5612;SDS011;63463;53.586;9.928;2023-10-13T02:03:07;36.73;;;12.97;;
5612;SDS011;63463;53.586;9.928;2023-10-13T02:05:40;37.40;;;14.40;;
5612;SDS011;63463;53.586;9.928;2023-10-13T02:08:12;41.30;;;14.10;;
5612;SDS011;63463;53.586;9.928;2023-10-13T02:10:44;42.70;;;14.03;;
5612;SDS011;63463;53.586;9.928;2023-10-13T02:13:12;38.60;;;14.73;;
5612;SDS011;63463;53.586;9.928;2023-10-13T02:15:41;40.47;;;15.73;;
5612;SDS011;63463;53.586;9.928;2023-10-13T02:18:08;41.87;;;14.17;;
5612;SDS011;63463;53.586;9.928;2023-10-13T02:20:34;45.80;;;15.10;;
5612;SDS011;63463;53.586;9.928;2023-10-13T02:23:06;40.20;;;14.93;;
5612;SDS011;63463;53.586;9.928;2023-10-13T02:25:35;42.23;;;13.87;;
5612;SDS011;63463;53.586;9.928;2023-10-13T02:28:08;43.93;;;14.93;;
5612;SDS011;63463;53.586;9.928;2023-10-13T02:30:38;45.13;;;15.77;;
5612;SDS011;63463;53.586;9.928;2023-10-13T02:33:04;39.13;;;14.10;;
5612;SDS011;63463;53.586;9.928;2023-10-13T02:35:31;50.87;;;17.13;;
5612;SDS011;63463;53.586;9.928;2023-10-13T02:38:07;50.53;;;16.73;;
5612;SDS011;63463;53.586;9.928;2023-10-13T02:40:37;42.73;;;15.70;;
5612;SDS011;63463;53.586;9.928;2023-10-13T02:43:03;46.00;;;15.77;;
5612;SDS011;63463;53.586;9.928;2023-10-13T02:45:30;43.53;;;16.53;;
5612;SDS011;63463;53.586;9.928;2023-10-13T02:47:56;62.60;;;17.80;;
5612;SDS011;63463;53.586;9.928;2023-10-13T02:50:38;60.90;;;17.50;;
5612;SDS011;63463;53.586;9.928;2023-10-13T02:53:07;49.07;;;16.50;;
5612;SDS011;63463;53.586;9.928;2023-10-13T02:55:37;65.90;;;16.37;;
5612;SDS011;63463;53.586;9.928;2023-10-13T02:58:04;55.50;;;16.93;;
5612;SDS011;63463;53.586;9.928;2023-10-13T03:00:30;51.03;;;17.77;;
5612;SDS011;63463;53.586;9.928;2023-10-13T03:02:57;39.90;;;15.33;;
5612;SDS011;63463;53.586;9.928;2023-10-13T03:05:26;42.93;;;16.00;;
5612;SDS011;63463;53.586;9.928;2023-10-13T03:07:56;53.57;;;16.40;;
5612;SDS011;63463;53.586;9.928;2023-10-13T03:10:23;59.90;;;17.77;;
5612;SDS011;63463;53.586;9.928;2023-10-13T03:12:54;45.10;;;16.23;;
5612;SDS011;63463;53.586;9.928;2023-10-13T03:15:20;47.93;;;16.60;;
5612;SDS011;63463;53.586;9.928;2023-10-13T03:17:54;52.43;;;16.33;;
5612;SDS011;63463;53.586;9.928;2023-10-13T03:20:20;52.67;;;18.03;;
5612;SDS011;63463;53.586;9.928;2023-10-13T03:23:07;54.90;;;17.00;;
5612;SDS011;63463;53.586;9.928;2023-10-13T03:25:34;48.53;;;15.73;;
5612;SDS011;63463;53.586;9.928;2023-10-13T03:28:07;51.27;;;15.93;;
5612;SDS011;63463;53.586;9.928;2023-10-13T03:30:38;41.63;;;16.80;;
5612;SDS011;63463;53.586;9.928;2023-10-13T03:33:07;51.73;;;16.30;;
5612;SDS011;63463;53.586;9.928;2023-10-13T03:35:50;56.03;;;18.27;;
5612;SDS011;63463;53.586;9.928;2023-10-13T03:38:19;41.47;;;16.93;;
5612;SDS011;63463;53.586;9.928;2023-10-13T03:40:51;54.63;;;17.20;;
5612;SDS011;63463;53.586;9.928;2023-10-13T03:43:21;56.23;;;16.33;;
5612;SDS011;63463;53.586;9.928;2023-10-13T03:45:48;62.33;;;17.23;;
5612;SDS011;63463;53.586;9.928;2023-10-13T03:48:19;43.13;;;16.00;;
5612;SDS011;63463;53.586;9.928;2023-10-13T03:50:57;43.23;;;15.00;;
5612;SDS011;63463;53.586;9.928;2023-10-13T03:53:28;38.70;;;15.93;;
5612;SDS011;63463;53.586;9.928;2023-10-13T03:56:07;37.77;;;15.17;;
5612;SDS011;63463;53.586;9.928;2023-10-13T03:58:37;50.70;;;16.37;;
5612;SDS011;63463;53.586;9.928;2023-10-13T04:01:07;44.13;;;15.93;;
5612;SDS011;63463;53.586;9.928;2023-10-13T04:03:37;36.90;;;15.47;;
5612;SDS011;63463;53.586;9.928;2023-10-13T04:06:06;46.43;;;15.40;;
5612;SDS011;63463;53.586;9.928;2023-10-13T04:08:33;37.87;;;14.77;;
5612;SDS011;63463;53.586;9.928;2023-10-13T04:11:07;34.47;;;14.87;;
5612;SDS011;63463;53.586;9.928;2023-10-13T04:13:52;34.77;;;15.90;;
5612;SDS011;63463;53.586;9.928;2023-10-13T04:16:37;44.03;;;14.77;;
5612;SDS011;63463;53.586;9.928;2023-10-13T04:19:15;40.93;;;14.80;;
5612;SDS011;63463;53.586;9.928;2023-10-13T04:21:54;39.73;;;15.20;;
5612;SDS011;63463;53.586;9.928;2023-10-13T04:24:23;39.77;;;15.70;;
5612;SDS011;63463;53.586;9.928;2023-10-13T04:27:04;45.40;;;15.53;;
5612;SDS011;63463;53.586;9.928;2023-10-13T04:29:37;39.10;;;15.03;;
5612;SDS011;63463;53.586;9.928;2023-10-13T04:32:15;40.53;;;14.17;;
5612;SDS011;63463;53.586;9.928;2023-10-13T04:35:03;37.23;;;14.63;;
5612;SDS011;63463;53.586;9.928;2023-10-13T04:37:35;41.33;;;16.37;;
5612;SDS011;63463;53.586;9.928;2023-10-13T04:40:15;41.50;;;16.17;;
5612;SDS011;63463;53.586;9.928;2023-10-13T04:42:44;44.10;;;16.60;;
5612;SDS011;63463;53.586;9.928;2023-10-13T04:45:18;49.27;;;17.73;;
5612;SDS011;63463;53.586;9.928;2023-10-13T04:48:00;52.90;;;18.27;;
5612;SDS011;63463;53.586;9.928;2023-10-13T04:50:48;50.80;;;19.43;;
5612;SDS011;63463;53.586;9.928;2023-10-13T04:53:24;74.40;;;24.10;;
5612;SDS011;63463;53.586;9.928;2023-10-13T04:55:53;95.80;;;28.80;;
5612;SDS011;63463;53.586;9.928;2023-10-13T04:58:31;96.70;;;30.97;;
5612;SDS011;63463;53.586;9.928;2023-10-13T05:01:00;102.43;;;33.07;;
5612;SDS011;63463;53.586;9.928;2023-10-13T05:03:45;105.27;;;34.63;;
5612;SDS011;63463;53.586;9.928;2023-10-13T05:06:29;117.60;;;36.03;;
5612;SDS011;63463;53.586;9.928;2023-10-13T05:09:13;149.17;;;39.30;;
5612;SDS011;63463;53.586;9.928;2023-10-13T05:11:58;135.97;;;38.87;;
5612;SDS011;63463;53.586;9.928;2023-10-13T05:14:43;151.87;;;40.20;;
5612;SDS011;63463;53.586;9.928;2023-10-13T05:17:28;150.80;;;41.80;;
5612;SDS011;63463;53.586;9.928;2023-10-13T05:20:12;176.53;;;41.27;;
5612;SDS011;63463;53.586;9.928;2023-10-13T05:22:57;157.07;;;42.17;;
5612;SDS011;63463;53.586;9.928;2023-10-13T05:25:41;158.05;;;43.53;;
5612;SDS011;63463;53.586;9.928;2023-10-13T05:28:26;160.13;;;41.17;;
5612;SDS011;63463;53.586;9.928;2023-10-13T05:31:10;150.87;;;39.20;;
5612;SDS011;63463;53.586;9.928;2023-10-13T05:33:55;157.30;;;40.03;;
5612;SDS011;63463;53.586;9.928;2023-10-13T05:36:40;161.53;;;41.10;;
5612;SDS011;63463;53.586;9.928;2023-10-13T05:39:24;151.97;;;39.27;;
5612;SDS011;63463;53.586;9.928;2023-10-13T05:42:09;164.53;;;40.17;;
5612;SDS011;63463;53.586;9.928;2023-10-13T05:45:07;140.93;;;39.20;;
5612;SDS011;63463;53.586;9.928;2023-10-13T05:47:42;150.93;;;38.97;;
5612;SDS011;63463;53.586;9.928;2023-10-13T05:50:09;146.70;;;39.83;;
5612;SDS011;63463;53.586;9.928;2023-10-13T05:52:38;155.90;;;39.50;;
5612;SDS011;63463;53.586;9.928;2023-10-13T05:55:25;147.57;;;40.87;;
5612;SDS011;63463;53.586;9.928;2023-10-13T05:58:11;160.43;;;41.87;;
5612;SDS011;63463;53.586;9.928;2023-10-13T06:00:55;144.00;;;41.47;;
5612;SDS011;63463;53.586;9.928;2023-10-13T06:03:40;150.17;;;40.80;;
5612;SDS011;63463;53.586;9.928;2023-10-13T06:06:25;137.87;;;39.63;;
5612;SDS011;63463;53.586;9.928;2023-10-13T06:09:09;143.23;;;41.60;;
5612;SDS011;63463;53.586;9.928;2023-10-13T06:11:54;130.83;;;38.93;;
5612;SDS011;63463;53.586;9.928;2023-10-13T06:14:39;133.40;;;39.27;;
5612;SDS011;63463;53.586;9.928;2023-10-13T06:17:23;134.70;;;40.83;;
5612;SDS011;63463;53.586;9.928;2023-10-13T06:20:08;136.17;;;38.40;;
5612;SDS011;63463;53.586;9.928;2023-10-13T06:22:53;127.90;;;39.90;;
5612;SDS011;63463;53.586;9.928;2023-10-13T06:25:38;120.80;;;38.37;;
5612;SDS011;63463;53.586;9.928;2023-10-13T06:28:22;135.23;;;39.20;;
5612;SDS011;63463;53.586;9.928;2023-10-13T06:31:07;134.57;;;40.13;;
5612;SDS011;63463;53.586;9.928;2023-10-13T06:33:37;131.40;;;39.50;;
5612;SDS011;63463;53.586;9.928;2023-10-13T06:36:09;123.50;;;40.10;;
5612;SDS011;63463;53.586;9.928;2023-10-13T06:38:36;139.97;;;39.30;;
5612;SDS011;63463;53.586;9.928;2023-10-13T06:41:02;111.07;;;37.90;;
5612;SDS011;63463;53.586;9.928;2023-10-13T06:43:32;123.03;;;38.67;;
5612;SDS011;63463;53.586;9.928;2023-10-13T06:46:04;134.00;;;41.00;;
5612;SDS011;63463;53.586;9.928;2023-10-13T06:48:30;106.90;;;37.40;;
5612;SDS011;63463;53.586;9.928;2023-10-13T06:50:58;111.63;;;38.30;;
5612;SDS011;63463;53.586;9.928;2023-10-13T06:53:29;119.03;;;38.57;;
5612;SDS011;63463;53.586;9.928;2023-10-13T06:56:01;111.60;;;38.10;;
5612;SDS011;63463;53.586;9.928;2023-10-13T06:58:28;121.60;;;40.27;;
5612;SDS011;63463;53.586;9.928;2023-10-13T07:00:54;124.67;;;39.07;;
5612;SDS011;63463;53.586;9.928;2023-10-13T07:03:21;115.67;;;39.57;;
5612;SDS011;63463;53.586;9.928;2023-10-13T07:05:47;128.83;;;40.07;;
5612;SDS011;63463;53.586;9.928;2023-10-13T07:08:14;105.70;;;39.97;;
5612;SDS011;63463;53.586;9.928;2023-10-13T07:10:48;105.30;;;40.90;;
5612;SDS011;63463;53.586;9.928;2023-10-13T07:13:14;121.03;;;41.00;;
5612;SDS011;63463;53.586;9.928;2023-10-13T07:15:42;104.37;;;37.57;;
5612;SDS011;63463;53.586;9.928;2023-10-13T07:18:13;108.50;;;39.20;;
5612;SDS011;63463;53.586;9.928;2023-10-13T07:20:42;100.67;;;36.10;;
5612;SDS011;63463;53.586;9.928;2023-10-13T07:23:13;107.53;;;41.00;;
5612;SDS011;63463;53.586;9.928;2023-10-13T07:25:43;102.97;;;36.77;;
5612;SDS011;63463;53.586;9.928;2023-10-13T07:28:16;100.03;;;34.60;;
5612;SDS011;63463;53.586;9.928;2023-10-13T07:30:42;88.23;;;36.33;;
5612;SDS011;63463;53.586;9.928;2023-10-13T07:33:22;84.93;;;33.43;;
5612;SDS011;63463;53.586;9.928;2023-10-13T07:35:59;81.10;;;33.90;;
5612;SDS011;63463;53.586;9.928;2023-10-13T07:38:25;91.17;;;34.10;;
5612;SDS011;63463;53.586;9.928;2023-10-13T07:40:55;93.73;;;34.70;;
5612;SDS011;63463;53.586;9.928;2023-10-13T07:43:25;78.10;;;30.30;;
5612;SDS011;63463;53.586;9.928;2023-10-13T07:45:52;88.07;;;32.87;;
5612;SDS011;63463;53.586;9.928;2023-10-13T07:48:23;85.80;;;30.40;;
5612;SDS011;63463;53.586;9.928;2023-10-13T07:51:01;66.80;;;27.60;;
5612;SDS011;63463;53.586;9.928;2023-10-13T07:53:28;57.23;;;27.47;;
5612;SDS011;63463;53.586;9.928;2023-10-13T07:55:59;65.83;;;28.50;;
5612;SDS011;63463;53.586;9.928;2023-10-13T07:58:30;57.73;;;25.13;;
5612;SDS011;63463;53.586;9.928;2023-10-13T08:00:58;47.47;;;24.60;;
5612;SDS011;63463;53.586;9.928;2023-10-13T08:03:34;42.10;;;21.90;;
5612;SDS011;63463;53.586;9.928;2023-10-13T08:06:08;45.07;;;22.07;;
5612;SDS011;63463;53.586;9.928;2023-10-13T08:08:37;46.10;;;22.23;;
5612;SDS011;63463;53.586;9.928;2023-10-13T08:11:10;38.83;;;19.83;;
5612;SDS011;63463;53.586;9.928;2023-10-13T08:13:39;36.47;;;18.93;;
5612;SDS011;63463;53.586;9.928;2023-10-13T08:16:11;36.67;;;18.80;;
5612;SDS011;63463;53.586;9.928;2023-10-13T08:18:45;36.70;;;17.60;;
5612;SDS011;63463;53.586;9.928;2023-10-13T08:21:14;36.57;;;18.00;;
5612;SDS011;63463;53.586;9.928;2023-10-13T08:23:47;35.80;;;17.57;;
5612;SDS011;63463;53.586;9.928;2023-10-13T08:26:22;30.10;;;17.50;;
5612;SDS011;63463;53.586;9.928;2023-10-13T08:29:01;30.13;;;16.50;;
5612;SDS011;63463;53.586;9.928;2023-10-13T08:31:46;29.93;;;16.97;;
5612;SDS011;63463;53.586;9.928;2023-10-13T08:34:33;28.27;;;16.50;;
5612;SDS011;63463;53.586;9.928;2023-10-13T08:37:34;29.97;;;16.57;;
5612;SDS011;63463;53.586;9.928;2023-10-13T08:40:26;32.67;;;15.60;;
5612;SDS011;63463;53.586;9.928;2023-10-13T08:43:10;34.40;;;16.13;;
5612;SDS011;63463;53.586;9.928;2023-10-13T08:45:37;30.03;;;14.10;;
5612;SDS011;63463;53.586;9.928;2023-10-13T08:48:04;28.30;;;16.13;;
5612;SDS011;63463;53.586;9.928;2023-10-13T08:53:15;27.07;;;15.00;;
5612;SDS011;63463;53.586;9.928;2023-10-13T08:58:55;27.90;;;14.90;;
5612;SDS011;63463;53.586;9.928;2023-10-13T09:01:22;26.60;;;14.77;;
5612;SDS011;63463;53.586;9.928;2023-10-13T09:04:11;23.07;;;14.97;;
5612;SDS011;63463;53.586;9.928;2023-10-13T09:06:56;27.83;;;14.87;;
5612;SDS011;63463;53.586;9.928;2023-10-13T09:09:28;27.67;;;15.90;;
5612;SDS011;63463;53.586;9.928;2023-10-13T09:12:37;24.17;;;13.90;;
5612;SDS011;63463;53.586;9.928;2023-10-13T09:14:57;24.70;;;14.07;;
5612;SDS011;63463;53.586;9.928;2023-10-13T09:17:26;23.70;;;14.00;;
5612;SDS011;63463;53.586;9.928;2023-10-13T09:19:59;21.77;;;14.10;;
5612;SDS011;63463;53.586;9.928;2023-10-13T09:22:45;26.67;;;14.37;;
5612;SDS011;63463;53.586;9.928;2023-10-13T09:25:27;28.60;;;15.10;;
5612;SDS011;63463;53.586;9.928;2023-10-13T09:27:58;30.07;;;15.80;;
5612;SDS011;63463;53.586;9.928;2023-10-13T09:30:25;28.10;;;14.77;;
5612;SDS011;63463;53.586;9.928;2023-10-13T09:33:00;23.57;;;14.80;;
5612;SDS011;63463;53.586;9.928;2023-10-13T09:35:42;28.53;;;15.37;;
5612;SDS011;63463;53.586;9.928;2023-10-13T09:38:14;24.07;;;14.50;;
5612;SDS011;63463;53.586;9.928;2023-10-13T09:40:40;27.37;;;14.77;;
5612;SDS011;63463;53.586;9.928;2023-10-13T09:43:22;23.50;;;13.20;;
5612;SDS011;63463;53.586;9.928;2023-10-13T09:45:48;24.37;;;13.80;;
5612;SDS011;63463;53.586;9.928;2023-10-13T09:48:31;18.70;;;12.93;;
5612;SDS011;63463;53.586;9.928;2023-10-13T09:50:59;18.70;;;11.87;;
5612;SDS011;63463;53.586;9.928;2023-10-13T09:53:25;18.07;;;11.50;;
5612;SDS011;63463;53.586;9.928;2023-10-13T09:56:02;21.63;;;12.53;;
5612;SDS011;63463;53.586;9.928;2023-10-13T09:59:00;19.27;;;12.50;;
5612;SDS011;63463;53.586;9.928;2023-10-13T10:01:33;17.00;;;12.17;;
5612;SDS011;63463;53.586;9.928;2023-10-13T10:04:07;25.37;;;12.77;;
5612;SDS011;63463;53.586;9.928;2023-10-13T10:06:34;21.03;;;11.70;;
5612;SDS011;63463;53.586;9.928;2023-10-13T10:09:12;19.20;;;11.87;;
5612;SDS011;63463;53.586;9.928;2023-10-13T10:17:05;25.63;;;10.60;;
5612;SDS011;63463;53.586;9.928;2023-10-13T10:19:47;20.80;;;11.10;;
5612;SDS011;63463;53.586;9.928;2023-10-13T10:22:24;27.30;;;11.83;;
5612;SDS011;63463;53.586;9.928;2023-10-13T10:24:58;33.63;;;11.73;;
5612;SDS011;63463;53.586;9.928;2023-10-13T10:27:25;18.33;;;11.30;;
5612;SDS011;63463;53.586;9.928;2023-10-13T10:29:54;27.10;;;11.60;;
5612;SDS011;63463;53.586;9.928;2023-10-13T10:32:20;21.70;;;11.40;;
5612;SDS011;63463;53.586;9.928;2023-10-13T10:34:46;26.53;;;11.30;;
5612;SDS011;63463;53.586;9.928;2023-10-13T10:37:13;21.10;;;11.97;;
5612;SDS011;63463;53.586;9.928;2023-10-13T10:39:40;30.87;;;11.33;;
5612;SDS011;63463;53.586;9.928;2023-10-13T10:42:14;23.90;;;11.60;;
5612;SDS011;63463;53.586;9.928;2023-10-13T10:44:41;24.90;;;11.90;;
5612;SDS011;63463;53.586;9.928;2023-10-13T10:47:13;23.60;;;12.70;;
5612;SDS011;63463;53.586;9.928;2023-10-13T10:50:02;25.20;;;11.80;;
5612;SDS011;63463;53.586;9.928;2023-10-13T10:52:44;21.50;;;12.03;;
5612;SDS011;63463;53.586;9.928;2023-10-13T10:55:11;24.40;;;12.27;;
5612;SDS011;63463;53.586;9.928;2023-10-13T10:57:39;30.20;;;11.80;;
5612;SDS011;63463;53.586;9.928;2023-10-13T11:00:20;28.23;;;12.60;;
5612;SDS011;63463;53.586;9.928;2023-10-13T11:02:57;19.53;;;11.00;;
5612;SDS011;63463;53.586;9.928;2023-10-13T11:05:23;18.97;;;11.23;;
5612;SDS011;63463;53.586;9.928;2023-10-13T11:07:57;25.17;;;11.00;;
5612;SDS011;63463;53.586;9.928;2023-10-13T11:10:23;22.07;;;11.27;;
5612;SDS011;63463;53.586;9.928;2023-10-13T11:12:56;21.43;;;11.97;;
5612;SDS011;63463;53.586;9.928;2023-10-13T11:15:42;24.13;;;12.03;;
5612;SDS011;63463;53.586;9.928;2023-10-13T11:18:11;15.93;;;11.13;;
5612;SDS011;63463;53.586;9.928;2023-10-13T11:20:42;24.43;;;11.13;;
5612;SDS011;63463;53.586;9.928;2023-10-13T11:23:12;31.60;;;12.43;;
5612;SDS011;63463;53.586;9.928;2023-10-13T11:25:39;18.73;;;11.67;;
5612;SDS011;63463;53.586;9.928;2023-10-13T11:28:12;20.60;;;11.70;;
5612;SDS011;63463;53.586;9.928;2023-10-13T11:30:45;20.77;;;10.97;;
5612;SDS011;63463;53.586;9.928;2023-10-13T11:33:15;30.00;;;11.40;;
5612;SDS011;63463;53.586;9.928;2023-10-13T11:35:48;17.50;;;10.60;;
5612;SDS011;63463;53.586;9.928;2023-10-13T11:38:18;18.17;;;10.10;;
5612;SDS011;63463;53.586;9.928;2023-10-13T11:40:54;25.33;;;11.03;;
5612;SDS011;63463;53.586;9.928;2023-10-13T11:43:29;16.50;;;10.00;;
5612;SDS011;63463;53.586;9.928;2023-10-13T11:45:59;21.73;;;9.87;;
5612;SDS011;63463;53.586;9.928;2023-10-13T11:48:38;19.00;;;9.43;;
5612;SDS011;63463;53.586;9.928;2023-10-13T11:51:14;20.57;;;8.80;;
5612;SDS011;63463;53.586;9.928;2023-10-13T11:53:49;15.10;;;8.40;;
5612;SDS011;63463;53.586;9.928;2023-10-13T11:56:18;17.67;;;8.63;;
5612;SDS011;63463;53.586;9.928;2023-10-13T11:58:48;13.87;;;8.83;;
5612;SDS011;63463;53.586;9.928;2023-10-13T12:01:14;17.87;;;7.63;;
5612;SDS011;63463;53.586;9.928;2023-10-13T12:06:25;13.90;;;7.23;;
5612;SDS011;63463;53.586;9.928;2023-10-13T12:09:00;23.67;;;9.27;;
5612;SDS011;63463;53.586;9.928;2023-10-13T12:11:38;12.73;;;7.43;;
5612;SDS011;63463;53.586;9.928;2023-10-13T12:14:06;17.57;;;7.47;;
5612;SDS011;63463;53.586;9.928;2023-10-13T12:16:51;14.90;;;7.57;;
5612;SDS011;63463;53.586;9.928;2023-10-13T12:19:17;16.20;;;8.40;;
5612;SDS011;63463;53.586;9.928;2023-10-13T12:21:44;11.50;;;7.53;;
5612;SDS011;63463;53.586;9.928;2023-10-13T12:24:12;17.80;;;7.53;;
5612;SDS011;63463;53.586;9.928;2023-10-13T12:27:02;20.10;;;7.47;;
5612;SDS011;63463;53.586;9.928;2023-10-13T12:29:44;13.50;;;7.27;;
5612;SDS011;63463;53.586;9.928;2023-10-13T12:32:11;17.43;;;6.60;;
5612;SDS011;63463;53.586;9.928;2023-10-13T12:34:38;13.10;;;6.63;;
5612;SDS011;63463;53.586;9.928;2023-10-13T12:37:23;16.30;;;7.13;;
5612;SDS011;63463;53.586;9.928;2023-10-13T12:40:04;23.60;;;7.03;;
5612;SDS011;63463;53.586;9.928;2023-10-13T12:42:49;20.33;;;7.27;;
5612;SDS011;63463;53.586;9.928;2023-10-13T12:45:38;11.70;;;6.50;;
5612;SDS011;63463;53.586;9.928;2023-10-13T12:48:23;16.57;;;7.00;;
5612;SDS011;63463;53.586;9.928;2023-10-13T12:51:07;13.83;;;6.70;;
5612;SDS011;63463;53.586;9.928;2023-10-13T12:53:53;18.43;;;6.03;;
5612;SDS011;63463;53.586;9.928;2023-10-13T12:56:19;20.50;;;7.47;;
5612;SDS011;63463;53.586;9.928;2023-10-13T12:58:54;21.83;;;6.97;;
5612;SDS011;63463;53.586;9.928;2023-10-13T13:01:24;13.10;;;7.17;;
5612;SDS011;63463;53.586;9.928;2023-10-13T13:03:52;10.90;;;5.70;;
5612;SDS011;63463;53.586;9.928;2023-10-13T13:06:21;14.13;;;6.53;;
5612;SDS011;63463;53.586;9.928;2023-10-13T13:08:50;16.23;;;6.60;;
5612;SDS011;63463;53.586;9.928;2023-10-13T13:11:16;23.13;;;6.90;;
5612;SDS011;63463;53.586;9.928;2023-10-13T13:13:42;14.77;;;7.00;;
5612;SDS011;63463;53.586;9.928;2023-10-13T13:16:11;17.83;;;7.30;;
5612;SDS011;63463;53.586;9.928;2023-10-13T13:18:37;11.63;;;6.37;;
5612;SDS011;63463;53.586;9.928;2023-10-13T13:21:04;12.60;;;6.77;;
5612;SDS011;63463;53.586;9.928;2023-10-13T13:23:31;14.57;;;6.50;;
5612;SDS011;63463;53.586;9.928;2023-10-13T13:25:59;17.03;;;7.30;;
5612;SDS011;63463;53.586;9.928;2023-10-13T13:28:25;13.23;;;7.27;;
5612;SDS011;63463;53.586;9.928;2023-10-13T13:30:53;23.47;;;7.03;;
5612;SDS011;63463;53.586;9.928;2023-10-13T13:33:19;13.13;;;6.67;;
5612;SDS011;63463;53.586;9.928;2023-10-13T13:35:53;17.60;;;7.97;;
5612;SDS011;63463;53.586;9.928;2023-10-13T13:38:19;14.60;;;7.40;;
5612;SDS011;63463;53.586;9.928;2023-10-13T13:40:52;11.33;;;6.63;;
5612;SDS011;63463;53.586;9.928;2023-10-13T13:43:21;14.07;;;6.77;;
5612;SDS011;63463;53.586;9.928;2023-10-13T13:45:57;17.80;;;6.03;;
5612;SDS011;63463;53.586;9.928;2023-10-13T13:48:28;15.03;;;7.63;;
5612;SDS011;63463;53.586;9.928;2023-10-13T13:50:54;15.20;;;6.77;;
5612;SDS011;63463;53.586;9.928;2023-10-13T13:53:28;25.37;;;7.07;;
5612;SDS011;63463;53.586;9.928;2023-10-13T13:55:59;19.10;;;7.33;;
5612;SDS011;63463;53.586;9.928;2023-10-13T13:58:25;18.57;;;6.60;;
5612;SDS011;63463;53.586;9.928;2023-10-13T14:01:01;11.00;;;6.50;;
5612;SDS011;63463;53.586;9.928;2023-10-13T14:03:38;9.67;;;6.80;;
5612;SDS011;63463;53.586;9.928;2023-10-13T14:06:10;12.73;;;6.30;;
5612;SDS011;63463;53.586;9.928;2023-10-13T14:08:42;13.90;;;7.00;;
5612;SDS011;63463;53.586;9.928;2023-10-13T14:11:09;13.70;;;6.80;;
5612;SDS011;63463;53.586;9.928;2023-10-13T14:13:39;11.67;;;6.30;;
5612;SDS011;63463;53.586;9.928;2023-10-13T14:16:17;10.40;;;6.03;;
5612;SDS011;63463;53.586;9.928;2023-10-13T14:18:44;16.87;;;6.50;;
5612;SDS011;63463;53.586;9.928;2023-10-13T14:21:10;14.93;;;6.70;;
5612;SDS011;63463;53.586;9.928;2023-10-13T14:23:41;16.50;;;7.53;;
5612;SDS011;63463;53.586;9.928;2023-10-13T14:26:07;18.07;;;7.30;;
5612;SDS011;63463;53.586;9.928;2023-10-13T14:28:34;14.23;;;7.10;;
5612;SDS011;63463;53.586;9.928;2023-10-13T14:31:09;14.00;;;6.10;;
5612;SDS011;63463;53.586;9.928;2023-10-13T14:33:37;21.77;;;6.90;;
5612;SDS011;63463;53.586;9.928;2023-10-13T14:36:04;20.80;;;7.20;;
5612;SDS011;63463;53.586;9.928;2023-10-13T14:38:30;12.47;;;6.67;;
5612;SDS011;63463;53.586;9.928;2023-10-13T14:40:56;29.83;;;7.93;;
5612;SDS011;63463;53.586;9.928;2023-10-13T14:43:23;29.00;;;7.57;;
5612;SDS011;63463;53.586;9.928;2023-10-13T14:45:52;26.97;;;7.03;;
5612;SDS011;63463;53.586;9.928;2023-10-13T14:48:18;18.53;;;6.87;;
5612;SDS011;63463;53.586;9.928;2023-10-13T14:50:44;18.87;;;7.30;;
5612;SDS011;63463;53.586;9.928;2023-10-13T14:53:10;15.77;;;8.23;;
5612;SDS011;63463;53.586;9.928;2023-10-13T14:55:36;10.90;;;7.40;;
5612;SDS011;63463;53.586;9.928;2023-10-13T14:58:05;17.60;;;7.10;;
5612;SDS011;63463;53.586;9.928;2023-10-13T15:00:37;16.90;;;8.00;;
5612;SDS011;63463;53.586;9.928;2023-10-13T15:03:03;21.43;;;7.33;;
5612;SDS011;63463;53.586;9.928;2023-10-13T15:05:31;18.17;;;8.10;;
5612;SDS011;63463;53.586;9.928;2023-10-13T15:08:00;17.57;;;7.00;;
5612;SDS011;63463;53.586;9.928;2023-10-13T15:10:28;17.77;;;7.13;;
5612;SDS011;63463;53.586;9.928;2023-10-13T15:12:58;10.40;;;6.73;;
5612;SDS011;63463;53.586;9.928;2023-10-13T15:15:24;16.50;;;7.30;;
5612;SDS011;63463;53.586;9.928;2023-10-13T15:17:50;17.23;;;7.40;;
5612;SDS011;63463;53.586;9.928;2023-10-13T15:20:18;23.67;;;7.60;;
5612;SDS011;63463;53.586;9.928;2023-10-13T15:22:44;22.10;;;7.33;;